Time;durP1;ratioP1;P1;durP2;ratioP2;P2;SDS_P1;SDS_P2;PMS_P1;PMS_P2;Temp;Humidity;BMP_temperature;BMP_pressure;BME280_temperature;BME280_humidity;BME280_pressure;Samples;Min_cycle;Max_cycle;Signal;HPM_P1;HPM_P2
2022/05/09 00:00:04;;;;;;;4.20;2.88;;;;;;;;;;5014505;28;20133;-59
2022/05/09 00:02:31;;;;;;;4.00;3.50;;;;;;;;;;5014845;28;20436;-55
2022/05/09 00:04:58;;;;;;;3.80;3.40;;;;;;;;;;5015210;28;20061;-56
2022/05/09 00:07:24;;;;;;;3.90;3.25;;;;;;;;;;5014287;28;20021;-55
2022/05/09 00:09:50;;;;;;;4.40;3.28;;;;;;;;;;5015153;28;20026;-56
2022/05/09 00:12:16;;;;;;;6.63;3.40;;;;;;;;;;5013993;28;20025;-54
2022/05/09 00:14:42;;;;;;;4.80;3.83;;;;;;;;;;5015263;28;20060;-56
2022/05/09 00:17:08;;;;;;;4.22;3.38;;;;;;;;;;5014175;28;20022;-56
2022/05/09 00:19:34;;;;;;;4.53;3.72;;;;;;;;;;5015035;28;20045;-56
2022/05/09 00:22:00;;;;;;;4.15;3.65;;;;;;;;;;5014667;28;20034;-54
2022/05/09 00:24:26;;;;;;;4.78;3.58;;;;;;;;;;5014259;28;20061;-56
2022/05/09 00:26:53;;;;;;;4.07;3.65;;;;;;;;;;5014792;28;20026;-55
2022/05/09 00:29:20;;;;;;;4.57;3.80;;;;;;;;;;5014080;28;20022;-55
2022/05/09 00:31:47;;;;;;;4.75;3.75;;;;;;;;;;5014678;28;20030;-56
2022/05/09 00:34:17;;;;;;;5.85;4.10;;;;;;;;;;5013760;28;20112;-56
2022/05/09 00:36:43;;;;;;;5.18;4.03;;;;;;;;;;5014486;28;20069;-53
2022/05/09 00:39:09;;;;;;;5.30;3.53;;;;;;;;;;5014293;28;20042;-53
2022/05/09 00:41:37;;;;;;;3.85;3.42;;;;;;;;;;5014912;28;20022;-54
2022/05/09 00:44:07;;;;;;;6.47;3.92;;;;;;;;;;5014435;28;20042;-59
2022/05/09 00:46:34;;;;;;;4.00;3.60;;;;;;;;;;5014413;28;20597;-55
2022/05/09 00:49:07;;;;;;;7.22;4.10;;;;;;;;;;5014346;28;20038;-55
2022/05/09 00:51:33;;;;;;;4.95;3.95;;;;;;;;;;5014016;28;20398;-55
2022/05/09 00:54:02;;;;;;;7.25;3.95;;;;;;;;;;5028463;28;20040;-56
2022/05/09 00:56:30;;;;;;;4.65;3.90;;;;;;;;;;5033170;28;20022;-56
2022/05/09 00:58:59;;;;;;;4.85;3.65;;;;;;;;;;5033942;28;20382;-56
2022/05/09 01:01:25;;;;;;;5.78;3.78;;;;;;;;;;5034034;28;20022;-57
2022/05/09 01:04:07;;;;;;;4.82;3.63;;;;;;;;;;5034031;28;20565;-56
2022/05/09 01:06:33;;;;;;;7.28;3.63;;;;;;;;;;5034055;28;20030;-56
2022/05/09 01:08:59;;;;;;;5.00;4.00;;;;;;;;;;5033551;28;20029;-55
2022/05/09 01:11:25;;;;;;;5.32;3.70;;;;;;;;;;5032965;28;20021;-55
2022/05/09 01:13:58;;;;;;;4.75;3.60;;;;;;;;;;5033680;28;20048;-54
2022/05/09 01:16:25;;;;;;;4.13;3.70;;;;;;;;;;5032889;28;20026;-54
2022/05/09 01:18:52;;;;;;;7.57;3.92;;;;;;;;;;5033583;28;20071;-56
2022/05/09 01:21:33;;;;;;;5.22;3.53;;;;;;;;;;5032830;28;20022;-56
2022/05/09 01:24:00;;;;;;;5.90;3.75;;;;;;;;;;5033394;28;20128;-54
2022/05/09 01:26:26;;;;;;;5.25;4.32;;;;;;;;;;5032681;28;20021;-56
2022/05/09 01:28:52;;;;;;;5.60;3.60;;;;;;;;;;5033426;28;20041;-55
2022/05/09 01:31:19;;;;;;;4.53;3.92;;;;;;;;;;5031387;28;20068;-56
2022/05/09 01:33:49;;;;;;;5.25;3.67;;;;;;;;;;5033283;28;20031;-55
2022/05/09 01:36:17;;;;;;;5.03;3.95;;;;;;;;;;5032358;28;20026;-57
2022/05/09 01:38:46;;;;;;;5.20;4.22;;;;;;;;;;5033034;28;20120;-55
2022/05/09 01:41:12;;;;;;;7.22;4.43;;;;;;;;;;5032593;28;20021;-56
2022/05/09 01:43:37;;;;;;;4.68;4.15;;;;;;;;;;5031745;28;20375;-56
2022/05/09 01:46:05;;;;;;;4.47;3.38;;;;;;;;;;5033122;28;20025;-55
2022/05/09 01:51:16;;;;;;;4.35;3.88;;;;;;;;;;5032014;28;20036;-56
2022/05/09 01:53:49;;;;;;;5.13;4.28;;;;;;;;;;5020821;28;20034;-57
2022/05/09 01:56:15;;;;;;;6.45;4.63;;;;;;;;;;5012384;28;20455;-55
2022/05/09 01:58:41;;;;;;;6.30;4.22;;;;;;;;;;5013093;28;20379;-55
2022/05/09 02:01:08;;;;;;;4.88;3.45;;;;;;;;;;5012657;28;20483;-60
2022/05/09 02:03:34;;;;;;;5.82;3.88;;;;;;;;;;5012737;28;20032;-55
2022/05/09 02:06:00;;;;;;;4.45;3.70;;;;;;;;;;5012649;28;20475;-55
2022/05/09 02:08:27;;;;;;;4.00;3.45;;;;;;;;;;5011904;28;20026;-55
2022/05/09 02:10:53;;;;;;;4.25;3.55;;;;;;;;;;5012959;28;20029;-57
2022/05/09 02:13:20;;;;;;;5.43;3.58;;;;;;;;;;5012091;28;20029;-52
2022/05/09 02:15:46;;;;;;;4.20;3.67;;;;;;;;;;5012917;28;20065;-55
2022/05/09 02:18:12;;;;;;;5.32;3.70;;;;;;;;;;5011743;28;20481;-57
2022/05/09 02:20:38;;;;;;;8.82;5.15;;;;;;;;;;5011959;28;20108;-55
2022/05/09 02:23:04;;;;;;;5.95;3.85;;;;;;;;;;5012736;28;20041;-55
2022/05/09 02:25:30;;;;;;;5.13;3.58;;;;;;;;;;5011967;28;20026;-55
2022/05/09 02:28:00;;;;;;;4.82;3.90;;;;;;;;;;5012551;28;20022;-56
2022/05/09 02:30:26;;;;;;;5.53;3.78;;;;;;;;;;5011645;28;20022;-54
2022/05/09 02:32:52;;;;;;;4.65;3.85;;;;;;;;;;5012664;28;20033;-54
2022/05/09 02:35:19;;;;;;;4.20;3.70;;;;;;;;;;5012093;28;20030;-54
2022/05/09 02:37:45;;;;;;;5.20;3.78;;;;;;;;;;5012735;28;20034;-55
2022/05/09 02:40:11;;;;;;;4.95;3.33;;;;;;;;;;5012286;28;20053;-60
2022/05/09 02:42:37;;;;;;;5.75;3.92;;;;;;;;;;5012308;28;20029;-54
2022/05/09 02:45:03;;;;;;;6.05;3.80;;;;;;;;;;5012394;28;20069;-55
2022/05/09 02:47:30;;;;;;;5.70;4.07;;;;;;;;;;5011723;28;20109;-55
2022/05/09 02:49:56;;;;;;;4.30;3.53;;;;;;;;;;5012072;28;20544;-55
2022/05/09 02:52:22;;;;;;;4.53;3.97;;;;;;;;;;5012392;28;20074;-56
2022/05/09 02:54:48;;;;;;;3.97;3.50;;;;;;;;;;5032015;28;20042;-55
2022/05/09 02:57:14;;;;;;;4.13;3.72;;;;;;;;;;5031171;28;20021;-59
2022/05/09 02:59:40;;;;;;;4.13;3.72;;;;;;;;;;5032022;28;20027;-54
2022/05/09 03:02:08;;;;;;;5.00;3.80;;;;;;;;;;5031824;28;20474;-55
2022/05/09 03:04:41;;;;;;;6.60;4.15;;;;;;;;;;5031123;28;20025;-55
2022/05/09 03:07:11;;;;;;;4.85;3.78;;;;;;;;;;5031911;28;20037;-56
2022/05/09 03:09:38;;;;;;;4.47;4.05;;;;;;;;;;5031426;28;20021;-53
2022/05/09 03:12:07;;;;;;;4.70;3.55;;;;;;;;;;5031990;28;20095;-52
2022/05/09 03:14:33;;;;;;;4.65;4.13;;;;;;;;;;5031044;28;20021;-55
2022/05/09 03:16:59;;;;;;;4.53;3.80;;;;;;;;;;5031994;28;20104;-56
2022/05/09 03:19:26;;;;;;;6.65;3.80;;;;;;;;;;5030664;28;20100;-55
2022/05/09 03:21:52;;;;;;;3.78;3.38;;;;;;;;;;5031358;28;20026;-56
2022/05/09 03:24:19;;;;;;;4.07;3.30;;;;;;;;;;5030647;28;20482;-56
2022/05/09 03:26:45;;;;;;;4.00;3.58;;;;;;;;;;5031800;28;20029;-55
2022/05/09 03:29:11;;;;;;;6.13;3.80;;;;;;;;;;5031712;28;20029;-56
2022/05/09 03:31:37;;;;;;;4.15;3.55;;;;;;;;;;5031480;28;20025;-54
2022/05/09 03:34:03;;;;;;;5.03;4.00;;;;;;;;;;5035243;28;20507;-55
2022/05/09 03:36:29;;;;;;;4.82;3.90;;;;;;;;;;5034733;28;20026;-55
2022/05/09 03:38:56;;;;;;;4.18;3.42;;;;;;;;;;5035115;28;20054;-56
2022/05/09 03:41:22;;;;;;;5.05;3.88;;;;;;;;;;5034542;28;20053;-53
2022/05/09 03:43:48;;;;;;;5.82;3.90;;;;;;;;;;5035327;28;20026;-55
2022/05/09 03:46:14;;;;;;;4.28;3.60;;;;;;;;;;5034905;28;20075;-60
2022/05/09 03:48:40;;;;;;;4.18;3.40;;;;;;;;;;5035093;28;20026;-54
2022/05/09 03:51:06;;;;;;;7.55;4.13;;;;;;;;;;5035409;28;20051;-55
2022/05/09 03:53:32;;;;;;;6.53;3.80;;;;;;;;;;5034314;28;20034;-54
2022/05/09 03:55:58;;;;;;;3.88;3.28;;;;;;;;;;5035188;28;20163;-55
2022/05/09 03:58:24;;;;;;;4.57;4.07;;;;;;;;;;5034318;28;20072;-54
2022/05/09 04:00:51;;;;;;;4.18;3.60;;;;;;;;;;5035136;28;20025;-56
2022/05/09 04:03:17;;;;;;;4.30;3.47;;;;;;;;;;5034144;28;20348;-59
2022/05/09 04:05:43;;;;;;;4.93;3.88;;;;;;;;;;5034962;28;20091;-55
2022/05/09 04:08:11;;;;;;;5.40;3.83;;;;;;;;;;5034789;28;20021;-55
2022/05/09 04:10:37;;;;;;;4.75;3.67;;;;;;;;;;5034010;28;20070;-55
2022/05/09 04:13:04;;;;;;;5.15;3.97;;;;;;;;;;5034748;28;20026;-55
2022/05/09 04:18:17;;;;;;;7.45;4.80;;;;;;;;;;5034457;28;20498;-60
2022/05/09 04:20:43;;;;;;;5.50;3.83;;;;;;;;;;5034122;28;20497;-56
2022/05/09 04:23:09;;;;;;;4.25;3.75;;;;;;;;;;5034475;28;20038;-57
2022/05/09 04:25:36;;;;;;;5.70;3.42;;;;;;;;;;5033431;28;20128;-56
2022/05/09 04:28:04;;;;;;;4.45;3.55;;;;;;;;;;5034196;28;20072;-55
2022/05/09 04:30:30;;;;;;;4.70;3.78;;;;;;;;;;5033681;28;20041;-57
2022/05/09 04:32:57;;;;;;;5.93;4.07;;;;;;;;;;5034519;28;20064;-56
2022/05/09 04:35:23;;;;;;;6.18;3.60;;;;;;;;;;5033598;28;20068;-56
2022/05/09 04:37:52;;;;;;;6.57;4.05;;;;;;;;;;5034746;28;20113;-56
2022/05/09 04:40:22;;;;;;;4.65;3.95;;;;;;;;;;5033484;28;20540;-59
2022/05/09 04:42:48;;;;;;;8.18;3.85;;;;;;;;;;5034315;28;20022;-55
2022/05/09 04:45:15;;;;;;;6.97;3.70;;;;;;;;;;5033267;28;20064;-55
2022/05/09 04:47:42;;;;;;;4.13;3.60;;;;;;;;;;5034026;28;20064;-57
2022/05/09 04:50:09;;;;;;;4.53;4.00;;;;;;;;;;5034532;28;20083;-54
2022/05/09 04:52:35;;;;;;;5.68;4.38;;;;;;;;;;5030322;28;20205;-54
2022/05/09 04:55:01;;;;;;;4.47;3.63;;;;;;;;;;5014098;28;20037;-55
2022/05/09 04:57:27;;;;;;;4.50;3.90;;;;;;;;;;5013513;28;20379;-55
2022/05/09 04:59:53;;;;;;;4.25;3.65;;;;;;;;;;5014141;28;20425;-56
2022/05/09 05:02:19;;;;;;;5.47;3.80;;;;;;;;;;5012245;28;20120;-60
2022/05/09 05:04:45;;;;;;;5.30;4.40;;;;;;;;;;5014164;28;20033;-55
2022/05/09 05:07:11;;;;;;;7.43;4.00;;;;;;;;;;5013983;28;20461;-56
2022/05/09 05:09:37;;;;;;;4.35;3.65;;;;;;;;;;5013122;28;20033;-54
2022/05/09 05:12:04;;;;;;;5.75;4.40;;;;;;;;;;5014315;28;20030;-54
2022/05/09 05:14:30;;;;;;;6.15;4.18;;;;;;;;;;5012795;28;20033;-55
2022/05/09 05:17:00;;;;;;;5.28;4.78;;;;;;;;;;5013829;28;20018;-55
2022/05/09 05:19:36;;;;;;;5.20;4.30;;;;;;;;;;5012901;28;20080;-57
2022/05/09 05:22:04;;;;;;;4.50;3.85;;;;;;;;;;5014084;28;20419;-56
2022/05/09 05:24:32;;;;;;;5.00;4.05;;;;;;;;;;5012523;28;20137;-57
2022/05/09 05:26:58;;;;;;;5.10;4.32;;;;;;;;;;5013556;28;20035;-56
2022/05/09 05:29:24;;;;;;;5.15;4.05;;;;;;;;;;5012730;28;20022;-55
2022/05/09 05:31:51;;;;;;;5.03;4.18;;;;;;;;;;5013244;28;20372;-54
2022/05/09 05:34:17;;;;;;;8.77;4.00;;;;;;;;;;5013562;28;20030;-56
2022/05/09 05:36:43;;;;;;;6.15;3.95;;;;;;;;;;5012494;28;20030;-56
2022/05/09 05:39:15;;;;;;;7.78;5.15;;;;;;;;;;5013499;28;20050;-56
2022/05/09 05:41:41;;;;;;;7.05;4.82;;;;;;;;;;5012516;28;20018;-55
2022/05/09 05:44:11;;;;;;;6.93;4.30;;;;;;;;;;5013428;28;20034;-54
2022/05/09 05:46:37;;;;;;;5.22;3.97;;;;;;;;;;5011262;28;20429;-49
2022/05/09 05:49:03;;;;;;;6.60;3.92;;;;;;;;;;5013399;28;20026;-50
2022/05/09 05:51:29;;;;;;;9.98;5.15;;;;;;;;;;5012846;28;20030;-56
2022/05/09 05:53:58;;;;;;;10.00;5.32;;;;;;;;;;5026989;28;20032;-53
2022/05/09 05:56:24;;;;;;;9.07;4.72;;;;;;;;;;5031630;28;20025;-57
2022/05/09 05:58:50;;;;;;;8.52;4.45;;;;;;;;;;5033050;28;20025;-54
2022/05/09 06:01:16;;;;;;;6.10;4.78;;;;;;;;;;5032713;28;20524;-56
2022/05/09 06:03:42;;;;;;;7.70;3.97;;;;;;;;;;5032059;28;20653;-53
2022/05/09 06:06:08;;;;;;;7.20;4.32;;;;;;;;;;5032734;28;20087;-53
2022/05/09 06:08:38;;;;;;;6.78;4.30;;;;;;;;;;5032134;28;20017;-52
2022/05/09 06:11:10;;;;;;;5.18;3.92;;;;;;;;;;5032519;28;20021;-50
2022/05/09 06:13:36;;;;;;;8.45;4.88;;;;;;;;;;5032650;28;20026;-55
2022/05/09 06:16:03;;;;;;;7.68;5.97;;;;;;;;;;5034146;28;20053;-55
2022/05/09 06:18:29;;;;;;;9.05;6.65;;;;;;;;;;5032414;28;20057;-51
2022/05/09 06:20:55;;;;;;;9.55;6.00;;;;;;;;;;5032596;28;20064;-55
2022/05/09 06:23:22;;;;;;;9.60;6.03;;;;;;;;;;5032323;28;20026;-57
2022/05/09 06:25:49;;;;;;;10.23;6.68;;;;;;;;;;5031906;28;20037;-54
2022/05/09 06:28:16;;;;;;;9.35;5.88;;;;;;;;;;5030957;28;20490;-58
2022/05/09 06:30:42;;;;;;;9.40;5.82;;;;;;;;;;5028520;28;20390;-56
2022/05/09 06:33:09;;;;;;;6.40;5.57;;;;;;;;;;5026324;28;20045;-59
2022/05/09 06:35:39;;;;;;;7.30;5.50;;;;;;;;;;5031089;28;20021;-54
2022/05/09 06:38:05;;;;;;;9.82;6.05;;;;;;;;;;5033130;28;20025;-61
2022/05/09 06:40:32;;;;;;;9.20;5.38;;;;;;;;;;5030615;28;20494;-59
2022/05/09 06:42:59;;;;;;;9.93;5.80;;;;;;;;;;5031154;28;20014;-57
2022/05/09 06:45:25;;;;;;;8.25;5.47;;;;;;;;;;5033690;28;20034;-56
2022/05/09 06:47:53;;;;;;;6.78;4.82;;;;;;;;;;5031782;28;20036;-57
2022/05/09 06:50:20;;;;;;;9.27;6.00;;;;;;;;;;5029885;28;20033;-50
2022/05/09 06:52:46;;;;;;;7.93;6.15;;;;;;;;;;5031792;28;20034;-51
2022/05/09 06:55:12;;;;;;;7.30;5.32;;;;;;;;;;5033134;28;20441;-49
2022/05/09 06:57:39;;;;;;;8.48;6.00;;;;;;;;;;5033260;28;20028;-48
2022/05/09 07:00:07;;;;;;;6.47;5.30;;;;;;;;;;5031966;28;20025;-52
2022/05/09 07:02:33;;;;;;;7.88;5.78;;;;;;;;;;5030614;28;20109;-52
2022/05/09 07:04:59;;;;;;;6.93;6.10;;;;;;;;;;5032861;28;20093;-57
2022/05/09 07:07:25;;;;;;;8.98;5.22;;;;;;;;;;5033598;28;20029;-57
2022/05/09 07:09:51;;;;;;;6.93;4.40;;;;;;;;;;5035882;28;20057;-51
2022/05/09 07:12:17;;;;;;;6.90;4.75;;;;;;;;;;5035528;28;20025;-52
2022/05/09 07:14:43;;;;;;;5.68;4.22;;;;;;;;;;5034978;28;20059;-53
2022/05/09 07:17:09;;;;;;;5.65;4.15;;;;;;;;;;5035706;28;20100;-52
2022/05/09 07:19:35;;;;;;;6.45;3.85;;;;;;;;;;5035059;28;20022;-53
2022/05/09 07:22:01;;;;;;;7.75;4.43;;;;;;;;;;5035862;28;20087;-53
2022/05/09 07:24:27;;;;;;;6.47;4.10;;;;;;;;;;5035007;28;20506;-58
2022/05/09 07:26:53;;;;;;;6.53;4.50;;;;;;;;;;5034512;28;20036;-53
2022/05/09 07:29:19;;;;;;;7.13;4.30;;;;;;;;;;5035496;28;20022;-52
2022/05/09 07:31:45;;;;;;;4.63;3.78;;;;;;;;;;5034852;28;20028;-54
2022/05/09 07:34:11;;;;;;;5.25;4.10;;;;;;;;;;5035586;28;20448;-50
2022/05/09 07:36:37;;;;;;;13.70;3.95;;;;;;;;;;5034820;28;20028;-53
2022/05/09 07:39:03;;;;;;;4.22;3.20;;;;;;;;;;5035270;28;20049;-49
2022/05/09 07:41:31;;;;;;;4.15;3.33;;;;;;;;;;5034841;28;20072;-57
2022/05/09 07:43:57;;;;;;;6.00;4.07;;;;;;;;;;5035083;28;20053;-50
2022/05/09 07:46:23;;;;;;;4.57;3.70;;;;;;;;;;5035435;28;20025;-51
2022/05/09 07:48:50;;;;;;;6.15;3.67;;;;;;;;;;5033281;28;20029;-49
2022/05/09 07:51:17;;;;;;;5.00;4.32;;;;;;;;;;5034964;28;20037;-48
2022/05/09 07:53:43;;;;;;;6.78;4.25;;;;;;;;;;5034403;28;20040;-49
2022/05/09 07:56:09;;;;;;;7.28;4.00;;;;;;;;;;5035057;28;20474;-49
2022/05/09 07:58:36;;;;;;;4.53;3.40;;;;;;;;;;5034291;28;20029;-54
2022/05/09 08:01:02;;;;;;;4.85;4.03;;;;;;;;;;5035162;28;20036;-51
2022/05/09 08:03:29;;;;;;;5.07;3.65;;;;;;;;;;5034473;28;20028;-55
2022/05/09 08:05:59;;;;;;;6.70;3.88;;;;;;;;;;5034653;28;20056;-49
2022/05/09 08:08:26;;;;;;;5.25;3.50;;;;;;;;;;5034860;28;20025;-53
2022/05/09 08:10:52;;;;;;;4.97;4.05;;;;;;;;;;5034170;28;20040;-51
2022/05/09 08:13:19;;;;;;;8.30;3.85;;;;;;;;;;5034580;28;20021;-50
2022/05/09 08:15:46;;;;;;;5.30;3.83;;;;;;;;;;5034055;28;20080;-50
2022/05/09 08:18:13;;;;;;;5.45;3.65;;;;;;;;;;5033501;28;20033;-52
2022/05/09 08:20:40;;;;;;;4.75;3.83;;;;;;;;;;5034096;28;20032;-49
2022/05/09 08:23:11;;;;;;;5.60;3.78;;;;;;;;;;5034703;28;20033;-50
2022/05/09 08:25:38;;;;;;;4.47;3.72;;;;;;;;;;5033974;28;20030;-50
2022/05/09 08:28:05;;;;;;;4.25;3.47;;;;;;;;;;5034741;28;20060;-51
2022/05/09 08:30:35;;;;;;;4.93;3.92;;;;;;;;;;5033928;28;20108;-56
2022/05/09 08:33:02;;;;;;;6.65;4.25;;;;;;;;;;5034538;28;20021;-49
2022/05/09 08:35:28;;;;;;;5.60;3.60;;;;;;;;;;5034305;28;20025;-57
2022/05/09 08:37:54;;;;;;;6.75;3.75;;;;;;;;;;5033680;28;20051;-49
2022/05/09 08:40:24;;;;;;;4.40;3.63;;;;;;;;;;5034388;28;20613;-52
2022/05/09 08:42:57;;;;;;;5.25;3.50;;;;;;;;;;5033693;28;20571;-51
2022/05/09 08:45:26;;;;;;;6.97;3.85;;;;;;;;;;5034162;28;20032;-52
2022/05/09 08:47:56;;;;;;;5.65;3.60;;;;;;;;;;5033539;28;20037;-52
2022/05/09 08:50:37;;;;;;;6.55;3.85;;;;;;;;;;5034168;28;20033;-50
2022/05/09 08:53:11;;;;;;;6.53;3.90;;;;;;;;;;5034118;28;20060;-49
2022/05/09 08:55:41;;;;;;;5.20;3.63;;;;;;;;;;5033305;28;20029;-50
2022/05/09 08:58:07;;;;;;;4.53;3.63;;;;;;;;;;5034130;28;20100;-52
2022/05/09 09:00:33;;;;;;;4.97;3.78;;;;;;;;;;5033212;28;20026;-56
2022/05/09 09:03:02;;;;;;;6.50;3.70;;;;;;;;;;5034135;28;20441;-51
2022/05/09 09:05:32;;;;;;;7.63;3.70;;;;;;;;;;5033833;28;20040;-49
2022/05/09 09:08:16;;;;;;;6.78;4.00;;;;;;;;;;5033342;28;20548;-53
2022/05/09 09:10:49;;;;;;;8.95;3.65;;;;;;;;;;5033044;28;20049;-49
2022/05/09 09:13:29;;;;;;;4.70;3.90;;;;;;;;;;5033844;28;20025;-48
2022/05/09 09:16:15;;;;;;;11.73;4.18;;;;;;;;;;5032770;28;20050;-52
2022/05/09 09:18:50;;;;;;;7.65;3.75;;;;;;;;;;5032867;28;20064;-49
2022/05/09 09:21:24;;;;;;;7.85;4.20;;;;;;;;;;5033184;28;20024;-49
2022/05/09 09:23:59;;;;;;;6.15;3.63;;;;;;;;;;5032801;28;20505;-49
2022/05/09 09:26:28;;;;;;;4.88;3.70;;;;;;;;;;5033513;28;20040;-53
2022/05/09 09:28:59;;;;;;;5.80;3.70;;;;;;;;;;5032699;28;20028;-49
2022/05/09 09:31:30;;;;;;;7.00;4.07;;;;;;;;;;5033134;28;20075;-53
2022/05/09 09:34:06;;;;;;;4.70;3.45;;;;;;;;;;5032825;28;20029;-51
2022/05/09 09:36:38;;;;;;;6.55;3.72;;;;;;;;;;5033201;28;20112;-56
2022/05/09 09:39:10;;;;;;;3.53;3.10;;;;;;;;;;5033345;28;20045;-51
2022/05/09 09:41:37;;;;;;;5.28;2.97;;;;;;;;;;5032529;28;20025;-55
2022/05/09 09:44:16;;;;;;;5.32;3.85;;;;;;;;;;5032810;28;20528;-51
2022/05/09 09:47:01;;;;;;;5.07;3.80;;;;;;;;;;5031989;28;20372;-49
2022/05/09 09:49:27;;;;;;;5.25;4.07;;;;;;;;;;5032932;28;20018;-50
2022/05/09 09:51:53;;;;;;;7.07;3.55;;;;;;;;;;5032448;28;20042;-49
2022/05/09 09:54:23;;;;;;;6.30;3.30;;;;;;;;;;5032885;28;20100;-49
2022/05/09 09:56:49;;;;;;;8.13;4.05;;;;;;;;;;5031939;28;20049;-50
2022/05/09 09:59:18;;;;;;;4.70;3.60;;;;;;;;;;5033100;28;20423;-51
2022/05/09 10:02:00;;;;;;;5.88;3.72;;;;;;;;;;5031897;28;20021;-50
2022/05/09 10:04:27;;;;;;;4.80;3.20;;;;;;;;;;5032763;28;20087;-49
2022/05/09 10:07:02;;;;;;;4.63;3.22;;;;;;;;;;5031899;28;20036;-48
2022/05/09 10:09:29;;;;;;;4.57;3.78;;;;;;;;;;5032737;28;20029;-49
2022/05/09 10:12:13;;;;;;;3.78;3.30;;;;;;;;;;5031785;28;20159;-48
2022/05/09 10:14:39;;;;;;;5.65;3.65;;;;;;;;;;5032049;28;20100;-48
2022/05/09 10:17:13;;;;;;;5.18;3.25;;;;;;;;;;5031204;28;20017;-50
2022/05/09 10:19:39;;;;;;;5.15;3.30;;;;;;;;;;5031823;28;20032;-49
2022/05/09 10:25:04;;;;;;;6.82;3.22;;;;;;;;;;5031594;28;20552;-49
2022/05/09 10:27:31;;;;;;;5.88;3.85;;;;;;;;;;5032368;28;20021;-49
2022/05/09 10:30:02;;;;;;;6.20;3.22;;;;;;;;;;5031613;28;20028;-49
2022/05/09 10:32:47;;;;;;;6.37;3.20;;;;;;;;;;5032489;28;20024;-48
2022/05/09 10:35:29;;;;;;;6.78;4.47;;;;;;;;;;5032285;28;20608;-48
2022/05/09 10:37:55;;;;;;;5.72;3.42;;;;;;;;;;5031644;28;20857;-48
2022/05/09 10:40:28;;;;;;;4.47;3.28;;;;;;;;;;5032390;28;20045;-48
2022/05/09 10:43:05;;;;;;;4.53;3.30;;;;;;;;;;5030793;28;20027;-48
2022/05/09 10:45:36;;;;;;;7.05;3.28;;;;;;;;;;5032250;28;20197;-48
2022/05/09 10:48:11;;;;;;;3.25;2.80;;;;;;;;;;5031318;28;20494;-49
2022/05/09 10:50:49;;;;;;;3.85;3.15;;;;;;;;;;5032061;28;20048;-58
2022/05/09 10:53:18;;;;;;;4.95;3.53;;;;;;;;;;5024237;28;20072;-50
2022/05/09 10:55:47;;;;;;;5.40;2.85;;;;;;;;;;5011520;28;20113;-51
2022/05/09 10:58:13;;;;;;;4.78;2.92;;;;;;;;;;5012450;28;20029;-50
2022/05/09 11:00:45;;;;;;;4.05;3.35;;;;;;;;;;5011784;28;20076;-55
2022/05/09 11:03:17;;;;;;;5.55;3.47;;;;;;;;;;5012140;28;20182;-49
2022/05/09 11:05:58;;;;;;;3.40;3.10;;;;;;;;;;5011376;28;20121;-49
2022/05/09 11:08:24;;;;;;;3.95;3.03;;;;;;;;;;5012259;28;20476;-49
2022/05/09 11:11:00;;;;;;;3.38;3.03;;;;;;;;;;5011411;28;20105;-48
2022/05/09 11:13:29;;;;;;;3.63;3.10;;;;;;;;;;5012296;28;20109;-49
2022/05/09 11:16:07;;;;;;;4.38;3.00;;;;;;;;;;5011245;28;20036;-50
2022/05/09 11:18:52;;;;;;;3.10;2.80;;;;;;;;;;5012237;28;20475;-48
2022/05/09 11:21:23;;;;;;;4.35;3.15;;;;;;;;;;5011630;28;20026;-49
2022/05/09 11:23:55;;;;;;;5.53;3.33;;;;;;;;;;5011284;28;20030;-48
2022/05/09 11:26:25;;;;;;;6.38;2.90;;;;;;;;;;5011939;28;20312;-49
2022/05/09 11:29:09;;;;;;;3.90;3.47;;;;;;;;;;5011171;28;20030;-49
2022/05/09 11:31:42;;;;;;;3.97;3.10;;;;;;;;;;5011934;28;20383;-51
2022/05/09 11:34:24;;;;;;;3.28;2.83;;;;;;;;;;5011673;28;20045;-48
2022/05/09 11:36:50;;;;;;;3.83;2.92;;;;;;;;;;5011086;28;20058;-48
2022/05/09 11:39:28;;;;;;;4.40;3.03;;;;;;;;;;5012002;28;20529;-52
2022/05/09 11:43:27;;;;;;;4.10;3.08;;;;;;;;;;5011092;28;20049;-49
2022/05/09 11:44:57;;;;;;;5.97;3.50;;;;;;;;;;5010658;28;20045;-50
2022/05/09 11:47:34;;;;;;;6.07;3.28;;;;;;;;;;5011864;28;20022;-50
2022/05/09 11:50:23;;;;;;;7.38;2.83;;;;;;;;;;5010813;28;20463;-50
2022/05/09 11:52:49;;;;;;;5.53;3.33;;;;;;;;;;5016338;28;20487;-52
2022/05/09 11:55:20;;;;;;;6.28;3.50;;;;;;;;;;5035199;28;20033;-50
2022/05/09 11:57:55;;;;;;;7.40;3.78;;;;;;;;;;5034128;28;20505;-50
2022/05/09 12:00:30;;;;;;;5.32;3.58;;;;;;;;;;5035304;28;20063;-50
2022/05/09 12:02:57;;;;;;;8.05;3.58;;;;;;;;;;5034177;28;20072;-51
2022/05/09 12:05:26;;;;;;;4.63;3.08;;;;;;;;;;5034879;28;20032;-49
2022/05/09 12:07:55;;;;;;;8.00;3.22;;;;;;;;;;5034636;28;20068;-51
2022/05/09 12:10:28;;;;;;;5.28;2.90;;;;;;;;;;5035487;28;20021;-49
2022/05/09 12:12:56;;;;;;;6.00;3.00;;;;;;;;;;5034288;28;20177;-49
2022/05/09 12:15:22;;;;;;;4.35;3.42;;;;;;;;;;5034895;28;20036;-49
2022/05/09 12:18:08;;;;;;;4.82;3.58;;;;;;;;;;5034063;28;20025;-49
2022/05/09 12:20:37;;;;;;;3.30;3.00;;;;;;;;;;5024265;28;20099;-51
2022/05/09 12:23:05;;;;;;;5.88;3.30;;;;;;;;;;5033909;28;20026;-48
2022/05/09 12:25:34;;;;;;;5.18;3.30;;;;;;;;;;5034716;28;20026;-49
2022/05/09 12:28:06;;;;;;;4.43;3.30;;;;;;;;;;5033850;28;20036;-48
2022/05/09 12:30:32;;;;;;;3.63;2.60;;;;;;;;;;5034521;28;20025;-51
2022/05/09 12:32:58;;;;;;;4.47;3.00;;;;;;;;;;5033697;28;20029;-53
2022/05/09 12:35:24;;;;;;;4.28;3.15;;;;;;;;;;5034385;28;20025;-49
2022/05/09 12:37:50;;;;;;;3.45;2.90;;;;;;;;;;5033693;28;20489;-48
2022/05/09 12:40:20;;;;;;;2.78;2.33;;;;;;;;;;5034545;28;20092;-49
2022/05/09 12:42:48;;;;;;;3.30;3.00;;;;;;;;;;5033595;28;20364;-56
2022/05/09 12:45:15;;;;;;;3.60;2.67;;;;;;;;;;5034041;28;20485;-51
2022/05/09 12:47:43;;;;;;;3.15;2.70;;;;;;;;;;5032670;28;20036;-49
2022/05/09 12:50:11;;;;;;;5.30;2.78;;;;;;;;;;5033222;28;20025;-49
2022/05/09 12:52:42;;;;;;;3.45;2.60;;;;;;;;;;5031002;28;20038;-49
2022/05/09 12:57:53;;;;;;;3.70;2.83;;;;;;;;;;5013338;28;20028;-49
2022/05/09 13:00:27;;;;;;;3.92;3.00;;;;;;;;;;5014310;28;20029;-49
2022/05/09 13:02:53;;;;;;;6.22;3.35;;;;;;;;;;5013486;28;20082;-50
2022/05/09 13:05:32;;;;;;;6.47;3.25;;;;;;;;;;5013293;28;20471;-49
2022/05/09 13:07:59;;;;;;;3.55;2.80;;;;;;;;;;5013163;28;20040;-52
2022/05/09 13:10:26;;;;;;;4.72;3.17;;;;;;;;;;5014265;28;20026;-48
2022/05/09 13:12:57;;;;;;;7.55;3.15;;;;;;;;;;5013216;28;20061;-49
2022/05/09 13:15:23;;;;;;;5.03;3.15;;;;;;;;;;5014305;28;20025;-49
2022/05/09 13:17:51;;;;;;;2.95;2.55;;;;;;;;;;5012823;28;20050;-51
2022/05/09 13:20:19;;;;;;;4.25;2.70;;;;;;;;;;5013463;28;20021;-49
2022/05/09 13:22:47;;;;;;;4.10;3.10;;;;;;;;;;5013834;28;20489;-56
2022/05/09 13:25:17;;;;;;;4.15;3.25;;;;;;;;;;5013482;28;20034;-49
2022/05/09 13:27:45;;;;;;;5.70;2.60;;;;;;;;;;5013849;28;20105;-52
2022/05/09 13:30:11;;;;;;;5.82;3.00;;;;;;;;;;5012879;28;20018;-48
2022/05/09 13:32:38;;;;;;;3.72;2.80;;;;;;;;;;5013687;28;20113;-49
2022/05/09 13:35:14;;;;;;;3.08;2.42;;;;;;;;;;5012824;28;20026;-53
2022/05/09 13:37:41;;;;;;;5.38;3.17;;;;;;;;;;5013651;28;20025;-49
2022/05/09 13:40:08;;;;;;;4.18;3.00;;;;;;;;;;5012333;28;20041;-48
2022/05/09 13:42:38;;;;;;;5.43;3.28;;;;;;;;;;5013555;28;20018;-48
2022/05/09 13:45:09;;;;;;;3.58;2.97;;;;;;;;;;5012832;28;20041;-48
2022/05/09 13:47:36;;;;;;;;;;;;;;;;;;5013619;28;20479;-50
2022/05/09 13:50:02;;;;;;;3.72;2.97;;;;;;;;;;5012330;28;20374;-48
2022/05/09 13:52:34;;;;;;;13.93;3.83;;;;;;;;;;5014745;28;20072;-50
2022/05/09 13:55:00;;;;;;;;;;;;;;;;;;5032512;28;20040;-50
2022/05/09 13:57:34;;;;;;;4.55;2.72;;;;;;;;;;5032904;28;19905;-51
2022/05/09 14:00:03;;;;;;;10.43;3.72;;;;;;;;;;5031863;28;20017;-51
2022/05/09 14:02:32;;;;;;;12.18;3.08;;;;;;;;;;5032967;28;20026;-51
2022/05/09 14:05:04;;;;;;;5.55;3.20;;;;;;;;;;5031913;28;20061;-53
2022/05/09 14:07:38;;;;;;;6.43;2.90;;;;;;;;;;5032607;28;20108;-51
2022/05/09 14:10:11;;;;;;;5.97;3.20;;;;;;;;;;5031922;28;20025;-50
2022/05/09 14:12:37;;;;;;;4.35;3.03;;;;;;;;;;5032488;28;20040;-51
2022/05/09 14:15:03;;;;;;;4.03;2.67;;;;;;;;;;5032083;28;20025;-49
2022/05/09 14:17:32;;;;;;;3.85;2.83;;;;;;;;;;5032506;28;20022;-49
2022/05/09 14:20:00;;;;;;;4.32;3.05;;;;;;;;;;5031703;28;20120;-49
2022/05/09 14:22:27;;;;;;;4.00;2.72;;;;;;;;;;5031348;28;20039;-49
2022/05/09 14:30:33;;;;;;;5.78;2.80;;;;;;;;;;5032577;28;20080;-50
2022/05/09 14:32:59;;;;;;;6.03;2.95;;;;;;;;;;5031648;28;20403;-51
2022/05/09 14:35:42;;;;;;;2.80;2.40;;;;;;;;;;5032536;28;20037;-50
2022/05/09 14:38:26;;;;;;;5.20;2.67;;;;;;;;;;5031381;28;20048;-50
2022/05/09 14:40:52;;;;;;;3.40;2.92;;;;;;;;;;5031598;28;20100;-60
2022/05/09 14:43:29;;;;;;;4.32;2.50;;;;;;;;;;5032265;28;20087;-50
2022/05/09 14:46:03;;;;;;;5.55;2.70;;;;;;;;;;5031313;28;20056;-52
2022/05/09 14:48:30;;;;;;;3.85;2.90;;;;;;;;;;5032372;28;20080;-52
2022/05/09 14:50:57;;;;;;;4.65;3.25;;;;;;;;;;5031417;28;20079;-52
2022/05/09 14:53:35;;;;;;;4.22;2.95;;;;;;;;;;5022205;28;20084;-53
2022/05/09 14:59:14;;;;;;;4.40;2.75;;;;;;;;;;5011665;28;20132;-60
2022/05/09 15:01:51;;;;;;;5.00;2.90;;;;;;;;;;5012254;28;20069;-54
2022/05/09 15:04:17;;;;;;;4.50;2.85;;;;;;;;;;5011648;28;20145;-53
2022/05/09 15:06:43;;;;;;;5.07;2.95;;;;;;;;;;5012224;28;20109;-49
2022/05/09 15:09:09;;;;;;;3.78;2.90;;;;;;;;;;5011103;28;20022;-51
2022/05/09 15:11:37;;;;;;;4.65;3.00;;;;;;;;;;5012391;28;20026;-50